sensor_id;sensor_type;location;lat;lon;timestamp;temperature;humidity
76751;SHT31;65216;51.090;-115.352;2023-06-22T00:00:12;23.22;29.80
76751;SHT31;65216;51.090;-115.352;2023-06-22T00:02:39;23.21;29.97
76751;SHT31;65216;51.090;-115.352;2023-06-22T00:05:07;23.21;30.25
76751;SHT31;65216;51.090;-115.352;2023-06-22T00:07:34;23.22;30.36
76751;SHT31;65216;51.090;-115.352;2023-06-22T00:10:01;23.21;30.58
76751;SHT31;65216;51.090;-115.352;2023-06-22T00:12:28;23.19;30.70
76751;SHT31;65216;51.090;-115.352;2023-06-22T00:15:06;23.17;30.82
76751;SHT31;65216;51.090;-115.352;2023-06-22T00:17:34;23.16;31.00
76751;SHT31;65216;51.090;-115.352;2023-06-22T00:20:01;23.15;31.14
76751;SHT31;65216;51.090;-115.352;2023-06-22T00:22:31;23.15;31.34
76751;SHT31;65216;51.090;-115.352;2023-06-22T00:25:07;23.14;31.55
76751;SHT31;65216;51.090;-115.352;2023-06-22T00:27:38;23.12;31.63
76751;SHT31;65216;51.090;-115.352;2023-06-22T00:30:08;23.12;31.63
76751;SHT31;65216;51.090;-115.352;2023-06-22T00:32:38;23.11;31.84
76751;SHT31;65216;51.090;-115.352;2023-06-22T00:35:09;23.11;31.96
76751;SHT31;65216;51.090;-115.352;2023-06-22T00:37:37;23.12;32.18
76751;SHT31;65216;51.090;-115.352;2023-06-22T00:40:08;23.12;32.30
76751;SHT31;65216;51.090;-115.352;2023-06-22T00:42:37;23.12;32.46
76751;SHT31;65216;51.090;-115.352;2023-06-22T00:45:05;23.12;32.57
76751;SHT31;65216;51.090;-115.352;2023-06-22T00:47:34;23.14;32.67
76751;SHT31;65216;51.090;-115.352;2023-06-22T00:50:06;23.16;32.75
76751;SHT31;65216;51.090;-115.352;2023-06-22T00:52:38;23.17;32.79
76751;SHT31;65216;51.090;-115.352;2023-06-22T00:55:08;23.20;32.78
76751;SHT31;65216;51.090;-115.352;2023-06-22T00:57:36;23.22;32.68
76751;SHT31;65216;51.090;-115.352;2023-06-22T01:00:03;23.25;32.58
76751;SHT31;65216;51.090;-115.352;2023-06-22T01:02:33;23.27;32.72
76751;SHT31;65216;51.090;-115.352;2023-06-22T01:05:02;23.29;32.74
76751;SHT31;65216;51.090;-115.352;2023-06-22T01:07:35;23.30;32.62
76751;SHT31;65216;51.090;-115.352;2023-06-22T01:13:13;23.37;32.63
76751;SHT31;65216;51.090;-115.352;2023-06-22T01:15:55;23.38;32.61
76751;SHT31;65216;51.090;-115.352;2023-06-22T01:18:40;23.43;32.43
76751;SHT31;65216;51.090;-115.352;2023-06-22T01:21:10;23.45;32.42
76751;SHT31;65216;51.090;-115.352;2023-06-22T01:29:41;23.53;32.12
76751;SHT31;65216;51.090;-115.352;2023-06-22T01:32:12;23.55;32.03
76751;SHT31;65216;51.090;-115.352;2023-06-22T01:34:44;23.57;32.00
76751;SHT31;65216;51.090;-115.352;2023-06-22T01:37:14;23.58;32.02
76751;SHT31;65216;51.090;-115.352;2023-06-22T01:39:45;23.61;32.05
76751;SHT31;65216;51.090;-115.352;2023-06-22T01:42:14;23.63;31.94
76751;SHT31;65216;51.090;-115.352;2023-06-22T01:44:42;23.63;31.95
76751;SHT31;65216;51.090;-115.352;2023-06-22T01:47:10;23.63;32.00
76751;SHT31;65216;51.090;-115.352;2023-06-22T01:49:42;23.63;31.94
76751;SHT31;65216;51.090;-115.352;2023-06-22T01:52:10;23.61;31.90
76751;SHT31;65216;51.090;-115.352;2023-06-22T01:54:38;23.59;31.90
76751;SHT31;65216;51.090;-115.352;2023-06-22T01:57:09;23.59;32.04
76751;SHT31;65216;51.090;-115.352;2023-06-22T01:59:39;23.56;32.12
76751;SHT31;65216;51.090;-115.352;2023-06-22T02:02:43;23.56;31.99
76751;SHT31;65216;51.090;-115.352;2023-06-22T02:08:38;23.52;31.89
76751;SHT31;65216;51.090;-115.352;2023-06-22T02:11:34;23.49;31.85
76751;SHT31;65216;51.090;-115.352;2023-06-22T02:14:34;23.47;31.86
76751;SHT31;65216;51.090;-115.352;2023-06-22T02:17:03;23.46;31.79
76751;SHT31;65216;51.090;-115.352;2023-06-22T02:19:38;23.44;31.80
76751;SHT31;65216;51.090;-115.352;2023-06-22T02:22:10;23.43;31.75
76751;SHT31;65216;51.090;-115.352;2023-06-22T02:24:39;23.42;31.97
76751;SHT31;65216;51.090;-115.352;2023-06-22T02:27:06;23.42;32.01
76751;SHT31;65216;51.090;-115.352;2023-06-22T02:29:33;23.40;31.87
76751;SHT31;65216;51.090;-115.352;2023-06-22T02:32:00;23.38;31.77
76751;SHT31;65216;51.090;-115.352;2023-06-22T02:34:27;23.36;31.66
76751;SHT31;65216;51.090;-115.352;2023-06-22T02:37:04;23.33;31.73
76751;SHT31;65216;51.090;-115.352;2023-06-22T02:39:31;23.32;31.88
76751;SHT31;65216;51.090;-115.352;2023-06-22T02:41:58;23.29;31.91
76751;SHT31;65216;51.090;-115.352;2023-06-22T02:44:25;23.27;32.03
76751;SHT31;65216;51.090;-115.352;2023-06-22T02:46:52;23.25;31.96
76751;SHT31;65216;51.090;-115.352;2023-06-22T02:49:20;23.22;31.96
76751;SHT31;65216;51.090;-115.352;2023-06-22T02:51:47;23.20;32.00
76751;SHT31;65216;51.090;-115.352;2023-06-22T02:54:15;23.19;31.95
76751;SHT31;65216;51.090;-115.352;2023-06-22T02:56:42;23.18;31.99
76751;SHT31;65216;51.090;-115.352;2023-06-22T02:59:11;23.15;31.96
76751;SHT31;65216;51.090;-115.352;2023-06-22T03:02:07;23.13;32.00
76751;SHT31;65216;51.090;-115.352;2023-06-22T03:04:35;23.11;31.93
76751;SHT31;65216;51.090;-115.352;2023-06-22T03:07:03;23.09;32.14
76751;SHT31;65216;51.090;-115.352;2023-06-22T03:09:31;23.08;32.23
76751;SHT31;65216;51.090;-115.352;2023-06-22T03:11:58;23.06;32.31
76751;SHT31;65216;51.090;-115.352;2023-06-22T03:14:28;23.04;32.45
76751;SHT31;65216;51.090;-115.352;2023-06-22T03:16:55;23.04;32.38
76751;SHT31;65216;51.090;-115.352;2023-06-22T03:19:30;23.03;32.27
76751;SHT31;65216;51.090;-115.352;2023-06-22T03:21:57;23.00;32.21
76751;SHT31;65216;51.090;-115.352;2023-06-22T03:24:25;22.99;32.27
76751;SHT31;65216;51.090;-115.352;2023-06-22T03:26:55;23.00;32.39
76751;SHT31;65216;51.090;-115.352;2023-06-22T03:29:22;22.99;32.40
76751;SHT31;65216;51.090;-115.352;2023-06-22T03:31:50;22.97;32.35
76751;SHT31;65216;51.090;-115.352;2023-06-22T03:34:18;22.96;32.42
76751;SHT31;65216;51.090;-115.352;2023-06-22T03:36:45;22.95;32.42
76751;SHT31;65216;51.090;-115.352;2023-06-22T03:39:15;22.93;32.44
76751;SHT31;65216;51.090;-115.352;2023-06-22T03:41:42;22.92;32.50
76751;SHT31;65216;51.090;-115.352;2023-06-22T03:44:09;22.91;32.58
76751;SHT31;65216;51.090;-115.352;2023-06-22T03:46:38;22.89;32.71
76751;SHT31;65216;51.090;-115.352;2023-06-22T03:49:07;22.87;32.76
76751;SHT31;65216;51.090;-115.352;2023-06-22T03:51:34;22.84;32.90
76751;SHT31;65216;51.090;-115.352;2023-06-22T03:54:01;22.82;33.01
76751;SHT31;65216;51.090;-115.352;2023-06-22T03:56:29;22.81;33.09
76751;SHT31;65216;51.090;-115.352;2023-06-22T03:58:55;22.78;33.15
76751;SHT31;65216;51.090;-115.352;2023-06-22T04:01:22;22.78;33.19
76751;SHT31;65216;51.090;-115.352;2023-06-22T04:03:52;22.77;33.22
76751;SHT31;65216;51.090;-115.352;2023-06-22T04:06:19;22.77;33.28
76751;SHT31;65216;51.090;-115.352;2023-06-22T04:08:48;22.76;33.30
76751;SHT31;65216;51.090;-115.352;2023-06-22T04:11:16;22.75;33.30
76751;SHT31;65216;51.090;-115.352;2023-06-22T04:13:44;22.74;33.32
76751;SHT31;65216;51.090;-115.352;2023-06-22T04:16:11;22.72;33.31
76751;SHT31;65216;51.090;-115.352;2023-06-22T04:18:39;22.71;33.28
76751;SHT31;65216;51.090;-115.352;2023-06-22T04:21:07;22.69;33.29
76751;SHT31;65216;51.090;-115.352;2023-06-22T04:23:37;22.67;33.29
76751;SHT31;65216;51.090;-115.352;2023-06-22T04:26:03;22.66;33.30
76751;SHT31;65216;51.090;-115.352;2023-06-22T04:28:31;22.63;33.30
76751;SHT31;65216;51.090;-115.352;2023-06-22T04:31:03;22.62;33.34
76751;SHT31;65216;51.090;-115.352;2023-06-22T04:33:30;22.60;33.40
76751;SHT31;65216;51.090;-115.352;2023-06-22T04:35:58;22.59;33.42
76751;SHT31;65216;51.090;-115.352;2023-06-22T04:38:29;22.58;33.47
76751;SHT31;65216;51.090;-115.352;2023-06-22T04:40:58;22.60;33.46
76751;SHT31;65216;51.090;-115.352;2023-06-22T04:43:28;22.58;33.46
76751;SHT31;65216;51.090;-115.352;2023-06-22T04:45:56;22.56;33.47
76751;SHT31;65216;51.090;-115.352;2023-06-22T04:48:32;22.56;33.50
76751;SHT31;65216;51.090;-115.352;2023-06-22T04:50:59;22.56;33.50
76751;SHT31;65216;51.090;-115.352;2023-06-22T04:53:29;22.53;33.52
76751;SHT31;65216;51.090;-115.352;2023-06-22T04:55:59;22.53;33.54
76751;SHT31;65216;51.090;-115.352;2023-06-22T04:58:29;22.52;33.60
76751;SHT31;65216;51.090;-115.352;2023-06-22T05:00:58;22.51;33.60
76751;SHT31;65216;51.090;-115.352;2023-06-22T05:03:25;22.50;33.60
76751;SHT31;65216;51.090;-115.352;2023-06-22T05:05:52;22.50;33.68
76751;SHT31;65216;51.090;-115.352;2023-06-22T05:08:22;22.48;33.77
76751;SHT31;65216;51.090;-115.352;2023-06-22T05:10:52;22.49;33.92
76751;SHT31;65216;51.090;-115.352;2023-06-22T05:13:18;22.47;33.97
76751;SHT31;65216;51.090;-115.352;2023-06-22T05:15:47;22.49;33.97
76751;SHT31;65216;51.090;-115.352;2023-06-22T05:18:16;22.47;33.96
76751;SHT31;65216;51.090;-115.352;2023-06-22T05:20:43;22.46;34.27
76751;SHT31;65216;51.090;-115.352;2023-06-22T05:23:12;22.46;34.53
76751;SHT31;65216;51.090;-115.352;2023-06-22T05:25:39;22.45;34.60
76751;SHT31;65216;51.090;-115.352;2023-06-22T05:28:06;22.44;34.57
76751;SHT31;65216;51.090;-115.352;2023-06-22T05:30:36;22.42;34.53
76751;SHT31;65216;51.090;-115.352;2023-06-22T05:33:04;22.42;34.47
76751;SHT31;65216;51.090;-115.352;2023-06-22T05:35:31;22.41;34.48
76751;SHT31;65216;51.090;-115.352;2023-06-22T05:37:58;22.41;34.44
76751;SHT31;65216;51.090;-115.352;2023-06-22T05:40:27;22.40;34.41
76751;SHT31;65216;51.090;-115.352;2023-06-22T05:42:54;22.41;34.40
76751;SHT31;65216;51.090;-115.352;2023-06-22T05:45:26;22.38;34.40
76751;SHT31;65216;51.090;-115.352;2023-06-22T05:47:52;22.40;34.39
76751;SHT31;65216;51.090;-115.352;2023-06-22T05:50:19;22.39;34.35
76751;SHT31;65216;51.090;-115.352;2023-06-22T05:52:46;22.38;34.30
76751;SHT31;65216;51.090;-115.352;2023-06-22T05:55:13;22.39;34.30
76751;SHT31;65216;51.090;-115.352;2023-06-22T05:57:41;22.37;34.26
76751;SHT31;65216;51.090;-115.352;2023-06-22T06:00:10;22.37;34.21
76751;SHT31;65216;51.090;-115.352;2023-06-22T06:02:38;22.36;34.23
76751;SHT31;65216;51.090;-115.352;2023-06-22T06:05:12;22.35;34.20
76751;SHT31;65216;51.090;-115.352;2023-06-22T06:07:39;22.35;34.19
76751;SHT31;65216;51.090;-115.352;2023-06-22T06:10:10;22.35;34.16
76751;SHT31;65216;51.090;-115.352;2023-06-22T06:12:37;22.34;34.12
76751;SHT31;65216;51.090;-115.352;2023-06-22T06:15:04;22.34;34.10
76751;SHT31;65216;51.090;-115.352;2023-06-22T06:17:32;22.34;34.08
76751;SHT31;65216;51.090;-115.352;2023-06-22T06:19:59;22.33;34.00
76751;SHT31;65216;51.090;-115.352;2023-06-22T06:22:26;22.33;33.99
76751;SHT31;65216;51.090;-115.352;2023-06-22T06:24:53;22.32;33.98
76751;SHT31;65216;51.090;-115.352;2023-06-22T06:27:20;22.32;33.95
76751;SHT31;65216;51.090;-115.352;2023-06-22T06:29:54;22.31;33.90
76751;SHT31;65216;51.090;-115.352;2023-06-22T06:32:21;22.31;33.90
76751;SHT31;65216;51.090;-115.352;2023-06-22T06:34:48;22.30;33.89
76751;SHT31;65216;51.090;-115.352;2023-06-22T06:37:16;22.29;33.88
76751;SHT31;65216;51.090;-115.352;2023-06-22T06:39:44;22.28;33.88
76751;SHT31;65216;51.090;-115.352;2023-06-22T06:42:11;22.30;33.91
76751;SHT31;65216;51.090;-115.352;2023-06-22T06:44:37;22.29;33.91
76751;SHT31;65216;51.090;-115.352;2023-06-22T06:47:07;22.29;33.87
76751;SHT31;65216;51.090;-115.352;2023-06-22T06:49:34;22.29;33.81
76751;SHT31;65216;51.090;-115.352;2023-06-22T06:52:00;22.28;33.80
76751;SHT31;65216;51.090;-115.352;2023-06-22T06:54:32;22.28;33.80
76751;SHT31;65216;51.090;-115.352;2023-06-22T06:57:02;22.28;33.81
76751;SHT31;65216;51.090;-115.352;2023-06-22T06:59:31;22.27;33.77
76751;SHT31;65216;51.090;-115.352;2023-06-22T07:02:01;22.28;33.77
76751;SHT31;65216;51.090;-115.352;2023-06-22T07:04:28;22.27;33.73
76751;SHT31;65216;51.090;-115.352;2023-06-22T07:06:58;22.27;33.72
76751;SHT31;65216;51.090;-115.352;2023-06-22T07:09:28;22.25;33.70
76751;SHT31;65216;51.090;-115.352;2023-06-22T07:11:55;22.25;33.70
76751;SHT31;65216;51.090;-115.352;2023-06-22T07:14:21;22.25;33.64
76751;SHT31;65216;51.090;-115.352;2023-06-22T07:16:49;22.25;33.65
76751;SHT31;65216;51.090;-115.352;2023-06-22T07:19:15;22.24;34.06
76751;SHT31;65216;51.090;-115.352;2023-06-22T07:21:51;22.23;34.28
76751;SHT31;65216;51.090;-115.352;2023-06-22T07:24:22;22.22;34.51
76751;SHT31;65216;51.090;-115.352;2023-06-22T07:26:50;22.22;34.34
76751;SHT31;65216;51.090;-115.352;2023-06-22T07:29:17;22.23;34.22
76751;SHT31;65216;51.090;-115.352;2023-06-22T07:31:49;22.23;34.21
76751;SHT31;65216;51.090;-115.352;2023-06-22T07:34:21;22.22;34.17
76751;SHT31;65216;51.090;-115.352;2023-06-22T07:36:48;22.21;34.12
76751;SHT31;65216;51.090;-115.352;2023-06-22T07:39:15;22.21;34.19
76751;SHT31;65216;51.090;-115.352;2023-06-22T07:41:42;22.20;34.24
76751;SHT31;65216;51.090;-115.352;2023-06-22T07:44:09;22.19;34.24
76751;SHT31;65216;51.090;-115.352;2023-06-22T07:46:36;22.20;34.20
76751;SHT31;65216;51.090;-115.352;2023-06-22T07:49:02;22.20;34.10
76751;SHT31;65216;51.090;-115.352;2023-06-22T07:51:33;22.20;34.01
76751;SHT31;65216;51.090;-115.352;2023-06-22T07:54:00;22.19;33.94
76751;SHT31;65216;51.090;-115.352;2023-06-22T07:56:30;22.18;33.86
76751;SHT31;65216;51.090;-115.352;2023-06-22T07:59:00;22.18;33.81
76751;SHT31;65216;51.090;-115.352;2023-06-22T08:01:29;22.17;33.75
76751;SHT31;65216;51.090;-115.352;2023-06-22T08:03:56;22.17;33.71
76751;SHT31;65216;51.090;-115.352;2023-06-22T08:06:23;22.17;33.63
76751;SHT31;65216;51.090;-115.352;2023-06-22T08:08:49;22.16;33.60
76751;SHT31;65216;51.090;-115.352;2023-06-22T08:11:18;22.16;33.60
76751;SHT31;65216;51.090;-115.352;2023-06-22T08:13:47;22.14;33.54
76751;SHT31;65216;51.090;-115.352;2023-06-22T08:16:14;22.14;33.50
76751;SHT31;65216;51.090;-115.352;2023-06-22T08:18:41;22.13;33.47
76751;SHT31;65216;51.090;-115.352;2023-06-22T08:21:08;22.12;33.45
76751;SHT31;65216;51.090;-115.352;2023-06-22T08:23:36;22.12;33.40
76751;SHT31;65216;51.090;-115.352;2023-06-22T08:26:03;22.10;33.37
76751;SHT31;65216;51.090;-115.352;2023-06-22T08:28:30;22.09;33.35
76751;SHT31;65216;51.090;-115.352;2023-06-22T08:30:57;22.09;33.30
76751;SHT31;65216;51.090;-115.352;2023-06-22T08:33:27;22.07;33.27
76751;SHT31;65216;51.090;-115.352;2023-06-22T08:35:57;22.07;33.21
76751;SHT31;65216;51.090;-115.352;2023-06-22T08:38:25;22.04;33.20
76751;SHT31;65216;51.090;-115.352;2023-06-22T08:40:52;22.03;33.21
76751;SHT31;65216;51.090;-115.352;2023-06-22T08:43:19;22.02;33.19
76751;SHT31;65216;51.090;-115.352;2023-06-22T08:45:49;22.02;33.19
76751;SHT31;65216;51.090;-115.352;2023-06-22T08:48:18;22.00;33.14
76751;SHT31;65216;51.090;-115.352;2023-06-22T08:50:45;22.00;33.10
76751;SHT31;65216;51.090;-115.352;2023-06-22T08:53:14;21.99;33.10
76751;SHT31;65216;51.090;-115.352;2023-06-22T08:55:41;21.97;33.10
76751;SHT31;65216;51.090;-115.352;2023-06-22T08:58:08;21.97;33.10
76751;SHT31;65216;51.090;-115.352;2023-06-22T09:03:41;21.96;33.01
76751;SHT31;65216;51.090;-115.352;2023-06-22T09:06:08;21.96;33.00
76751;SHT31;65216;51.090;-115.352;2023-06-22T09:08:37;21.95;32.98
76751;SHT31;65216;51.090;-115.352;2023-06-22T09:11:04;21.95;32.95
76751;SHT31;65216;51.090;-115.352;2023-06-22T09:13:33;21.95;32.90
76751;SHT31;65216;51.090;-115.352;2023-06-22T09:16:03;21.93;32.91
76751;SHT31;65216;51.090;-115.352;2023-06-22T09:18:30;21.92;32.89
76751;SHT31;65216;51.090;-115.352;2023-06-22T09:20:57;21.92;32.88
76751;SHT31;65216;51.090;-115.352;2023-06-22T09:23:24;21.91;32.86
76751;SHT31;65216;51.090;-115.352;2023-06-22T09:25:51;21.90;32.85
76751;SHT31;65216;51.090;-115.352;2023-06-22T09:28:17;21.88;32.83
76751;SHT31;65216;51.090;-115.352;2023-06-22T09:30:46;21.88;32.81
76751;SHT31;65216;51.090;-115.352;2023-06-22T09:33:13;21.88;32.80
76751;SHT31;65216;51.090;-115.352;2023-06-22T09:35:40;21.88;32.80
76751;SHT31;65216;51.090;-115.352;2023-06-22T09:38:07;21.88;32.76
76751;SHT31;65216;51.090;-115.352;2023-06-22T09:40:33;21.86;32.77
76751;SHT31;65216;51.090;-115.352;2023-06-22T09:43:05;21.85;32.75
76751;SHT31;65216;51.090;-115.352;2023-06-22T09:45:32;21.85;32.73
76751;SHT31;65216;51.090;-115.352;2023-06-22T09:47:58;21.84;32.72
76751;SHT31;65216;51.090;-115.352;2023-06-22T09:50:26;21.84;32.70
76751;SHT31;65216;51.090;-115.352;2023-06-22T09:52:52;21.83;32.66
76751;SHT31;65216;51.090;-115.352;2023-06-22T09:55:20;21.82;32.63
76751;SHT31;65216;51.090;-115.352;2023-06-22T09:57:48;21.80;32.64
76751;SHT31;65216;51.090;-115.352;2023-06-22T10:00:15;21.79;32.64
76751;SHT31;65216;51.090;-115.352;2023-06-22T10:02:44;21.79;32.61
76751;SHT31;65216;51.090;-115.352;2023-06-22T10:05:12;21.79;32.60
76751;SHT31;65216;51.090;-115.352;2023-06-22T10:07:39;21.77;32.60
76751;SHT31;65216;51.090;-115.352;2023-06-22T10:10:09;21.77;32.60
76751;SHT31;65216;51.090;-115.352;2023-06-22T10:12:43;21.78;32.57
76751;SHT31;65216;51.090;-115.352;2023-06-22T10:15:20;21.79;32.56
76751;SHT31;65216;51.090;-115.352;2023-06-22T10:17:47;21.79;32.51
76751;SHT31;65216;51.090;-115.352;2023-06-22T10:20:14;21.78;32.50
76751;SHT31;65216;51.090;-115.352;2023-06-22T10:22:44;21.77;32.47
76751;SHT31;65216;51.090;-115.352;2023-06-22T10:25:11;21.78;32.45
76751;SHT31;65216;51.090;-115.352;2023-06-22T10:27:41;21.78;32.44
76751;SHT31;65216;51.090;-115.352;2023-06-22T10:30:10;21.78;32.41
76751;SHT31;65216;51.090;-115.352;2023-06-22T10:32:39;21.79;32.40
76751;SHT31;65216;51.090;-115.352;2023-06-22T10:35:08;21.79;32.48
76751;SHT31;65216;51.090;-115.352;2023-06-22T10:37:44;21.79;32.48
76751;SHT31;65216;51.090;-115.352;2023-06-22T10:40:15;21.80;32.52
76751;SHT31;65216;51.090;-115.352;2023-06-22T10:42:44;21.80;32.50
76751;SHT31;65216;51.090;-115.352;2023-06-22T10:45:10;21.80;32.50
76751;SHT31;65216;51.090;-115.352;2023-06-22T10:47:39;21.79;32.51
76751;SHT31;65216;51.090;-115.352;2023-06-22T10:50:07;21.79;32.58
76751;SHT31;65216;51.090;-115.352;2023-06-22T10:52:35;21.80;32.67
76751;SHT31;65216;51.090;-115.352;2023-06-22T10:55:01;21.79;32.64
76751;SHT31;65216;51.090;-115.352;2023-06-22T10:57:29;21.78;32.63
76751;SHT31;65216;51.090;-115.352;2023-06-22T10:59:56;21.78;32.60
76751;SHT31;65216;51.090;-115.352;2023-06-22T11:02:23;21.78;32.60
76751;SHT31;65216;51.090;-115.352;2023-06-22T11:04:50;21.78;32.59
76751;SHT31;65216;51.090;-115.352;2023-06-22T11:07:17;21.76;32.57
76751;SHT31;65216;51.090;-115.352;2023-06-22T11:09:44;21.73;32.59
76751;SHT31;65216;51.090;-115.352;2023-06-22T11:12:13;21.73;32.54
76751;SHT31;65216;51.090;-115.352;2023-06-22T11:14:43;21.71;32.57
76751;SHT31;65216;51.090;-115.352;2023-06-22T11:17:10;21.69;32.60
76751;SHT31;65216;51.090;-115.352;2023-06-22T11:19:37;21.68;32.58
76751;SHT31;65216;51.090;-115.352;2023-06-22T11:22:04;21.68;32.60
76751;SHT31;65216;51.090;-115.352;2023-06-22T11:24:31;21.67;32.59
76751;SHT31;65216;51.090;-115.352;2023-06-22T11:26:58;21.66;32.59
76751;SHT31;65216;51.090;-115.352;2023-06-22T11:29:25;21.65;32.60
76751;SHT31;65216;51.090;-115.352;2023-06-22T11:31:52;21.65;32.60
76751;SHT31;65216;51.090;-115.352;2023-06-22T11:34:19;21.65;32.59
76751;SHT31;65216;51.090;-115.352;2023-06-22T11:36:48;21.64;32.59
76751;SHT31;65216;51.090;-115.352;2023-06-22T11:39:15;21.64;32.58
76751;SHT31;65216;51.090;-115.352;2023-06-22T11:41:42;21.63;32.61
76751;SHT31;65216;51.090;-115.352;2023-06-22T11:44:11;21.63;32.60
76751;SHT31;65216;51.090;-115.352;2023-06-22T11:46:38;21.63;32.60
76751;SHT31;65216;51.090;-115.352;2023-06-22T11:49:05;21.62;32.60
76751;SHT31;65216;51.090;-115.352;2023-06-22T11:51:34;21.62;32.63
76751;SHT31;65216;51.090;-115.352;2023-06-22T11:54:02;21.61;32.63
76751;SHT31;65216;51.090;-115.352;2023-06-22T11:56:28;21.62;32.61
76751;SHT31;65216;51.090;-115.352;2023-06-22T11:58:58;21.62;32.61
76751;SHT31;65216;51.090;-115.352;2023-06-22T12:01:25;21.62;32.66
76751;SHT31;65216;51.090;-115.352;2023-06-22T12:03:52;21.61;32.64
76751;SHT31;65216;51.090;-115.352;2023-06-22T12:06:18;21.60;32.64
76751;SHT31;65216;51.090;-115.352;2023-06-22T12:08:48;21.61;32.67
76751;SHT31;65216;51.090;-115.352;2023-06-22T12:11:14;21.60;32.69
76751;SHT31;65216;51.090;-115.352;2023-06-22T12:13:44;21.60;32.70
76751;SHT31;65216;51.090;-115.352;2023-06-22T12:16:14;21.59;32.70
76751;SHT31;65216;51.090;-115.352;2023-06-22T12:18:40;21.60;32.71
76751;SHT31;65216;51.090;-115.352;2023-06-22T12:21:07;21.58;32.71
76751;SHT31;65216;51.090;-115.352;2023-06-22T12:23:34;21.58;32.74
76751;SHT31;65216;51.090;-115.352;2023-06-22T12:26:01;21.58;32.76
76751;SHT31;65216;51.090;-115.352;2023-06-22T12:28:31;21.57;32.78
76751;SHT31;65216;51.090;-115.352;2023-06-22T12:30:57;21.57;32.80
76751;SHT31;65216;51.090;-115.352;2023-06-22T12:33:24;21.56;32.83
76751;SHT31;65216;51.090;-115.352;2023-06-22T12:35:51;21.57;32.87
76751;SHT31;65216;51.090;-115.352;2023-06-22T12:38:18;21.57;32.85
76751;SHT31;65216;51.090;-115.352;2023-06-22T12:40:47;21.57;32.88
76751;SHT31;65216;51.090;-115.352;2023-06-22T12:43:18;21.57;32.92
76751;SHT31;65216;51.090;-115.352;2023-06-22T12:45:46;21.57;32.93
76751;SHT31;65216;51.090;-115.352;2023-06-22T12:48:13;21.56;32.98
76751;SHT31;65216;51.090;-115.352;2023-06-22T12:50:43;21.56;33.02
76751;SHT31;65216;51.090;-115.352;2023-06-22T12:53:09;21.55;33.06
76751;SHT31;65216;51.090;-115.352;2023-06-22T12:55:39;21.54;33.10
76751;SHT31;65216;51.090;-115.352;2023-06-22T12:58:08;21.55;33.16
76751;SHT31;65216;51.090;-115.352;2023-06-22T13:00:35;21.55;33.19
76751;SHT31;65216;51.090;-115.352;2023-06-22T13:03:01;21.54;33.21
76751;SHT31;65216;51.090;-115.352;2023-06-22T13:05:37;21.53;33.22
76751;SHT31;65216;51.090;-115.352;2023-06-22T13:08:04;21.53;33.28
76751;SHT31;65216;51.090;-115.352;2023-06-22T13:10:34;21.53;33.29
76751;SHT31;65216;51.090;-115.352;2023-06-22T13:13:00;21.52;33.30
76751;SHT31;65216;51.090;-115.352;2023-06-22T13:15:28;21.51;33.30
76751;SHT31;65216;51.090;-115.352;2023-06-22T13:17:55;21.51;33.33
76751;SHT31;65216;51.090;-115.352;2023-06-22T13:20:22;21.50;33.31
76751;SHT31;65216;51.090;-115.352;2023-06-22T13:22:49;21.50;33.34
76751;SHT31;65216;51.090;-115.352;2023-06-22T13:25:16;21.50;33.34
76751;SHT31;65216;51.090;-115.352;2023-06-22T13:27:44;21.50;33.38
76751;SHT31;65216;51.090;-115.352;2023-06-22T13:30:11;21.49;33.39
76751;SHT31;65216;51.090;-115.352;2023-06-22T13:32:39;21.49;33.40
76751;SHT31;65216;51.090;-115.352;2023-06-22T13:35:08;21.48;33.40
76751;SHT31;65216;51.090;-115.352;2023-06-22T13:37:39;21.49;33.41
76751;SHT31;65216;51.090;-115.352;2023-06-22T13:40:08;21.48;33.40
76751;SHT31;65216;51.090;-115.352;2023-06-22T13:42:38;21.49;33.45
76751;SHT31;65216;51.090;-115.352;2023-06-22T13:45:06;21.49;33.48
76751;SHT31;65216;51.090;-115.352;2023-06-22T13:47:34;21.48;33.50
76751;SHT31;65216;51.090;-115.352;2023-06-22T13:50:01;21.47;33.51
76751;SHT31;65216;51.090;-115.352;2023-06-22T13:52:28;21.47;33.59
76751;SHT31;65216;51.090;-115.352;2023-06-22T13:54:57;21.48;33.60
76751;SHT31;65216;51.090;-115.352;2023-06-22T13:57:24;21.49;33.65
76751;SHT31;65216;51.090;-115.352;2023-06-22T13:59:51;21.50;33.68
76751;SHT31;65216;51.090;-115.352;2023-06-22T14:02:18;21.51;33.71
76751;SHT31;65216;51.090;-115.352;2023-06-22T14:04:51;21.53;33.71
76751;SHT31;65216;51.090;-115.352;2023-06-22T14:07:17;21.54;33.71
76751;SHT31;65216;51.090;-115.352;2023-06-22T14:09:47;21.55;33.78
76751;SHT31;65216;51.090;-115.352;2023-06-22T14:12:19;21.55;33.79
76751;SHT31;65216;51.090;-115.352;2023-06-22T14:14:46;21.56;33.89
76751;SHT31;65216;51.090;-115.352;2023-06-22T14:17:13;21.56;33.90
76751;SHT31;65216;51.090;-115.352;2023-06-22T14:19:39;21.56;33.96
76751;SHT31;65216;51.090;-115.352;2023-06-22T14:22:06;21.57;34.01
76751;SHT31;65216;51.090;-115.352;2023-06-22T14:24:33;21.59;34.04
76751;SHT31;65216;51.090;-115.352;2023-06-22T14:27:00;21.60;34.01
76751;SHT31;65216;51.090;-115.352;2023-06-22T14:29:33;21.62;34.06
76751;SHT31;65216;51.090;-115.352;2023-06-22T14:32:00;21.62;34.16
76751;SHT31;65216;51.090;-115.352;2023-06-22T14:34:26;21.63;34.16
76751;SHT31;65216;51.090;-115.352;2023-06-22T14:36:53;21.63;34.14
76751;SHT31;65216;51.090;-115.352;2023-06-22T14:39:20;21.66;34.20
76751;SHT31;65216;51.090;-115.352;2023-06-22T14:41:47;21.66;34.17
76751;SHT31;65216;51.090;-115.352;2023-06-22T14:44:14;21.67;34.21
76751;SHT31;65216;51.090;-115.352;2023-06-22T14:46:42;21.67;34.23
76751;SHT31;65216;51.090;-115.352;2023-06-22T14:49:11;21.69;34.30
76751;SHT31;65216;51.090;-115.352;2023-06-22T14:51:37;21.70;34.28
76751;SHT31;65216;51.090;-115.352;2023-06-22T14:54:04;21.73;34.22
76751;SHT31;65216;51.090;-115.352;2023-06-22T14:56:31;21.74;34.32
76751;SHT31;65216;51.090;-115.352;2023-06-22T14:58:58;21.76;34.30
76751;SHT31;65216;51.090;-115.352;2023-06-22T15:01:25;21.77;34.24
76751;SHT31;65216;51.090;-115.352;2023-06-22T15:03:54;21.78;34.36
76751;SHT31;65216;51.090;-115.352;2023-06-22T15:06:26;21.79;34.37
76751;SHT31;65216;51.090;-115.352;2023-06-22T15:08:53;21.80;34.39
76751;SHT31;65216;51.090;-115.352;2023-06-22T15:11:20;21.82;34.40